sensor_id;sensor_type;location;lat;lon;timestamp;P1;durP1;ratioP1;P2;durP2;ratioP2
4422;SDS011;2224;49.814;8.650;2023-06-22T00:00:43;10.40;;;9.43;;
4422;SDS011;2224;49.814;8.650;2023-06-22T00:03:10;10.03;;;9.10;;
4422;SDS011;2224;49.814;8.650;2023-06-22T00:05:36;10.47;;;9.23;;
4422;SDS011;2224;49.814;8.650;2023-06-22T00:08:03;13.37;;;10.30;;
4422;SDS011;2224;49.814;8.650;2023-06-22T00:10:30;10.70;;;9.63;;
4422;SDS011;2224;49.814;8.650;2023-06-22T00:12:56;10.60;;;9.13;;
4422;SDS011;2224;49.814;8.650;2023-06-22T00:15:22;9.37;;;8.50;;
4422;SDS011;2224;49.814;8.650;2023-06-22T00:17:49;10.07;;;9.17;;
4422;SDS011;2224;49.814;8.650;2023-06-22T00:20:16;9.47;;;8.53;;
4422;SDS011;2224;49.814;8.650;2023-06-22T00:22:45;9.93;;;9.03;;
4422;SDS011;2224;49.814;8.650;2023-06-22T00:25:13;10.00;;;9.00;;
4422;SDS011;2224;49.814;8.650;2023-06-22T00:27:39;10.60;;;9.50;;
4422;SDS011;2224;49.814;8.650;2023-06-22T00:30:05;9.87;;;9.07;;
4422;SDS011;2224;49.814;8.650;2023-06-22T00:32:32;10.37;;;9.47;;
4422;SDS011;2224;49.814;8.650;2023-06-22T00:34:58;10.47;;;9.47;;
4422;SDS011;2224;49.814;8.650;2023-06-22T00:37:23;10.47;;;9.57;;
4422;SDS011;2224;49.814;8.650;2023-06-22T00:39:50;10.40;;;9.40;;
4422;SDS011;2224;49.814;8.650;2023-06-22T00:42:16;10.90;;;10.00;;
4422;SDS011;2224;49.814;8.650;2023-06-22T00:44:42;11.13;;;10.03;;
4422;SDS011;2224;49.814;8.650;2023-06-22T00:47:07;13.37;;;11.83;;
4422;SDS011;2224;49.814;8.650;2023-06-22T00:49:32;13.53;;;12.33;;
4422;SDS011;2224;49.814;8.650;2023-06-22T00:51:58;13.13;;;11.90;;
4422;SDS011;2224;49.814;8.650;2023-06-22T00:54:24;12.53;;;11.23;;
4422;SDS011;2224;49.814;8.650;2023-06-22T00:56:53;13.20;;;11.77;;
4422;SDS011;2224;49.814;8.650;2023-06-22T00:59:21;13.13;;;11.97;;
4422;SDS011;2224;49.814;8.650;2023-06-22T01:01:46;13.40;;;12.10;;
4422;SDS011;2224;49.814;8.650;2023-06-22T01:04:12;13.07;;;11.77;;
4422;SDS011;2224;49.814;8.650;2023-06-22T01:06:54;13.10;;;11.80;;
4422;SDS011;2224;49.814;8.650;2023-06-22T01:09:38;13.00;;;11.60;;
4422;SDS011;2224;49.814;8.650;2023-06-22T01:12:09;14.53;;;13.13;;
4422;SDS011;2224;49.814;8.650;2023-06-22T01:14:38;13.03;;;11.83;;
4422;SDS011;2224;49.814;8.650;2023-06-22T01:17:07;13.60;;;12.50;;
4422;SDS011;2224;49.814;8.650;2023-06-22T01:19:54;14.60;;;12.17;;
4422;SDS011;2224;49.814;8.650;2023-06-22T01:22:21;13.53;;;11.97;;
4422;SDS011;2224;49.814;8.650;2023-06-22T01:24:55;13.67;;;12.30;;
4422;SDS011;2224;49.814;8.650;2023-06-22T01:27:32;11.87;;;10.77;;
4422;SDS011;2224;49.814;8.650;2023-06-22T01:30:02;14.13;;;12.83;;
4422;SDS011;2224;49.814;8.650;2023-06-22T01:32:30;13.37;;;12.17;;
4422;SDS011;2224;49.814;8.650;2023-06-22T01:34:58;15.43;;;13.23;;
4422;SDS011;2224;49.814;8.650;2023-06-22T01:37:25;14.83;;;13.50;;
4422;SDS011;2224;49.814;8.650;2023-06-22T01:39:51;15.73;;;14.10;;
4422;SDS011;2224;49.814;8.650;2023-06-22T01:42:17;15.47;;;13.87;;
4422;SDS011;2224;49.814;8.650;2023-06-22T01:44:43;16.67;;;14.10;;
4422;SDS011;2224;49.814;8.650;2023-06-22T01:47:09;14.83;;;13.33;;
4422;SDS011;2224;49.814;8.650;2023-06-22T01:49:35;13.70;;;12.30;;
4422;SDS011;2224;49.814;8.650;2023-06-22T01:52:00;14.70;;;13.17;;
4422;SDS011;2224;49.814;8.650;2023-06-22T01:54:25;14.03;;;12.63;;
4422;SDS011;2224;49.814;8.650;2023-06-22T01:56:51;16.07;;;14.50;;
4422;SDS011;2224;49.814;8.650;2023-06-22T01:59:20;15.73;;;14.23;;
4422;SDS011;2224;49.814;8.650;2023-06-22T02:02:09;15.33;;;13.93;;
4422;SDS011;2224;49.814;8.650;2023-06-22T02:07:13;16.50;;;14.80;;
4422;SDS011;2224;49.814;8.650;2023-06-22T02:09:41;15.47;;;13.40;;
4422;SDS011;2224;49.814;8.650;2023-06-22T02:12:10;14.87;;;13.37;;
4422;SDS011;2224;49.814;8.650;2023-06-22T02:14:37;15.73;;;14.33;;
4422;SDS011;2224;49.814;8.650;2023-06-22T02:17:03;15.30;;;14.00;;
4422;SDS011;2224;49.814;8.650;2023-06-22T02:19:32;15.80;;;14.20;;
4422;SDS011;2224;49.814;8.650;2023-06-22T02:21:58;16.20;;;14.57;;
4422;SDS011;2224;49.814;8.650;2023-06-22T02:24:24;15.57;;;14.17;;
4422;SDS011;2224;49.814;8.650;2023-06-22T02:26:49;15.73;;;13.57;;
4422;SDS011;2224;49.814;8.650;2023-06-22T02:29:14;16.87;;;13.20;;
4422;SDS011;2224;49.814;8.650;2023-06-22T02:31:40;15.40;;;13.90;;
4422;SDS011;2224;49.814;8.650;2023-06-22T02:34:05;14.87;;;13.50;;
4422;SDS011;2224;49.814;8.650;2023-06-22T02:36:30;14.33;;;13.00;;
4422;SDS011;2224;49.814;8.650;2023-06-22T02:38:58;14.80;;;13.40;;
4422;SDS011;2224;49.814;8.650;2023-06-22T02:41:26;15.60;;;13.97;;
4422;SDS011;2224;49.814;8.650;2023-06-22T02:43:51;14.40;;;12.90;;
4422;SDS011;2224;49.814;8.650;2023-06-22T02:46:16;15.30;;;14.00;;
4422;SDS011;2224;49.814;8.650;2023-06-22T02:48:42;15.30;;;13.80;;
4422;SDS011;2224;49.814;8.650;2023-06-22T02:51:08;16.70;;;15.00;;
4422;SDS011;2224;49.814;8.650;2023-06-22T02:53:33;14.47;;;13.27;;
4422;SDS011;2224;49.814;8.650;2023-06-22T02:55:59;15.23;;;13.83;;
4422;SDS011;2224;49.814;8.650;2023-06-22T02:58:26;14.80;;;13.50;;
4422;SDS011;2224;49.814;8.650;2023-06-22T03:00:51;15.30;;;13.83;;
4422;SDS011;2224;49.814;8.650;2023-06-22T03:03:18;15.70;;;13.97;;
4422;SDS011;2224;49.814;8.650;2023-06-22T03:05:44;15.67;;;14.20;;
4422;SDS011;2224;49.814;8.650;2023-06-22T03:08:09;15.40;;;14.00;;
4422;SDS011;2224;49.814;8.650;2023-06-22T03:10:34;15.07;;;13.57;;
4422;SDS011;2224;49.814;8.650;2023-06-22T03:13:00;15.20;;;13.70;;
4422;SDS011;2224;49.814;8.650;2023-06-22T03:15:25;14.50;;;13.30;;
4422;SDS011;2224;49.814;8.650;2023-06-22T03:17:51;13.87;;;12.67;;
4422;SDS011;2224;49.814;8.650;2023-06-22T03:20:16;15.10;;;13.60;;
4422;SDS011;2224;49.814;8.650;2023-06-22T03:22:42;15.40;;;13.80;;
4422;SDS011;2224;49.814;8.650;2023-06-22T03:25:08;14.67;;;13.17;;
4422;SDS011;2224;49.814;8.650;2023-06-22T03:27:41;14.20;;;12.93;;
4422;SDS011;2224;49.814;8.650;2023-06-22T03:30:08;15.03;;;13.53;;
4422;SDS011;2224;49.814;8.650;2023-06-22T03:32:35;14.50;;;13.00;;
4422;SDS011;2224;49.814;8.650;2023-06-22T03:35:00;14.13;;;12.83;;
4422;SDS011;2224;49.814;8.650;2023-06-22T03:37:26;15.17;;;13.67;;
4422;SDS011;2224;49.814;8.650;2023-06-22T03:39:52;18.90;;;14.23;;
4422;SDS011;2224;49.814;8.650;2023-06-22T03:42:17;15.50;;;13.97;;
4422;SDS011;2224;49.814;8.650;2023-06-22T03:44:43;15.93;;;14.40;;
4422;SDS011;2224;49.814;8.650;2023-06-22T03:47:08;16.17;;;14.77;;
4422;SDS011;2224;49.814;8.650;2023-06-22T03:49:34;16.07;;;14.47;;
4422;SDS011;2224;49.814;8.650;2023-06-22T03:52:00;14.50;;;13.20;;
4422;SDS011;2224;49.814;8.650;2023-06-22T03:54:27;15.40;;;14.00;;
4422;SDS011;2224;49.814;8.650;2023-06-22T03:56:53;14.60;;;13.10;;
4422;SDS011;2224;49.814;8.650;2023-06-22T03:59:18;15.70;;;14.20;;
4422;SDS011;2224;49.814;8.650;2023-06-22T04:01:44;15.37;;;13.97;;
4422;SDS011;2224;49.814;8.650;2023-06-22T04:04:09;14.67;;;13.37;;
4422;SDS011;2224;49.814;8.650;2023-06-22T04:06:35;16.40;;;14.93;;
4422;SDS011;2224;49.814;8.650;2023-06-22T04:09:00;16.43;;;14.90;;
4422;SDS011;2224;49.814;8.650;2023-06-22T04:11:25;15.70;;;14.17;;
4422;SDS011;2224;49.814;8.650;2023-06-22T04:13:51;15.90;;;14.50;;
4422;SDS011;2224;49.814;8.650;2023-06-22T04:16:16;14.30;;;13.00;;
4422;SDS011;2224;49.814;8.650;2023-06-22T04:18:41;17.30;;;15.80;;
4422;SDS011;2224;49.814;8.650;2023-06-22T04:21:07;15.20;;;13.90;;
4422;SDS011;2224;49.814;8.650;2023-06-22T04:23:32;15.33;;;13.93;;
4422;SDS011;2224;49.814;8.650;2023-06-22T04:25:57;16.57;;;15.03;;
4422;SDS011;2224;49.814;8.650;2023-06-22T04:28:24;16.40;;;14.70;;
4422;SDS011;2224;49.814;8.650;2023-06-22T04:30:49;16.63;;;15.13;;
4422;SDS011;2224;49.814;8.650;2023-06-22T04:33:16;17.20;;;15.60;;
4422;SDS011;2224;49.814;8.650;2023-06-22T04:35:41;16.23;;;14.43;;
4422;SDS011;2224;49.814;8.650;2023-06-22T04:38:07;19.67;;;15.83;;
4422;SDS011;2224;49.814;8.650;2023-06-22T04:40:32;16.47;;;14.87;;
4422;SDS011;2224;49.814;8.650;2023-06-22T04:42:57;16.30;;;14.77;;
4422;SDS011;2224;49.814;8.650;2023-06-22T04:45:27;16.30;;;14.60;;
4422;SDS011;2224;49.814;8.650;2023-06-22T04:47:52;17.07;;;15.30;;
4422;SDS011;2224;49.814;8.650;2023-06-22T04:50:17;15.47;;;14.17;;
4422;SDS011;2224;49.814;8.650;2023-06-22T04:52:45;17.30;;;15.47;;
4422;SDS011;2224;49.814;8.650;2023-06-22T04:55:11;16.80;;;15.10;;
4422;SDS011;2224;49.814;8.650;2023-06-22T04:57:36;16.07;;;14.57;;
4422;SDS011;2224;49.814;8.650;2023-06-22T05:00:04;17.00;;;15.40;;
4422;SDS011;2224;49.814;8.650;2023-06-22T05:02:40;16.60;;;15.20;;
4422;SDS011;2224;49.814;8.650;2023-06-22T05:05:05;17.40;;;15.80;;
4422;SDS011;2224;49.814;8.650;2023-06-22T05:07:32;15.83;;;14.53;;
4422;SDS011;2224;49.814;8.650;2023-06-22T05:09:58;18.23;;;15.40;;
4422;SDS011;2224;49.814;8.650;2023-06-22T05:12:23;15.90;;;14.50;;
4422;SDS011;2224;49.814;8.650;2023-06-22T05:14:49;17.00;;;15.50;;
4422;SDS011;2224;49.814;8.650;2023-06-22T05:17:14;17.20;;;15.60;;
4422;SDS011;2224;49.814;8.650;2023-06-22T05:19:40;16.50;;;15.00;;
4422;SDS011;2224;49.814;8.650;2023-06-22T05:22:09;16.83;;;15.33;;
4422;SDS011;2224;49.814;8.650;2023-06-22T05:24:37;17.30;;;15.60;;
4422;SDS011;2224;49.814;8.650;2023-06-22T05:27:02;17.00;;;15.37;;
4422;SDS011;2224;49.814;8.650;2023-06-22T05:29:28;16.70;;;15.20;;
4422;SDS011;2224;49.814;8.650;2023-06-22T05:31:53;16.77;;;15.07;;
4422;SDS011;2224;49.814;8.650;2023-06-22T05:34:18;16.53;;;14.93;;
4422;SDS011;2224;49.814;8.650;2023-06-22T05:36:44;17.97;;;16.37;;
4422;SDS011;2224;49.814;8.650;2023-06-22T05:39:13;16.30;;;14.83;;
4422;SDS011;2224;49.814;8.650;2023-06-22T05:41:39;18.33;;;16.43;;
4422;SDS011;2224;49.814;8.650;2023-06-22T05:44:04;16.97;;;15.43;;
4422;SDS011;2224;49.814;8.650;2023-06-22T05:46:29;16.87;;;15.23;;
4422;SDS011;2224;49.814;8.650;2023-06-22T05:48:55;17.03;;;15.50;;
4422;SDS011;2224;49.814;8.650;2023-06-22T05:51:20;16.30;;;14.70;;
4422;SDS011;2224;49.814;8.650;2023-06-22T05:53:45;16.57;;;14.97;;
4422;SDS011;2224;49.814;8.650;2023-06-22T05:56:16;17.30;;;15.60;;
4422;SDS011;2224;49.814;8.650;2023-06-22T05:58:41;15.43;;;14.13;;
4422;SDS011;2224;49.814;8.650;2023-06-22T06:01:07;15.70;;;14.30;;
4422;SDS011;2224;49.814;8.650;2023-06-22T06:03:32;15.67;;;14.27;;
4422;SDS011;2224;49.814;8.650;2023-06-22T06:05:57;16.10;;;14.57;;
4422;SDS011;2224;49.814;8.650;2023-06-22T06:08:23;15.93;;;14.50;;
4422;SDS011;2224;49.814;8.650;2023-06-22T06:10:49;16.33;;;14.77;;
4422;SDS011;2224;49.814;8.650;2023-06-22T06:13:15;15.97;;;12.90;;
4422;SDS011;2224;49.814;8.650;2023-06-22T06:15:40;15.53;;;14.13;;
4422;SDS011;2224;49.814;8.650;2023-06-22T06:18:05;13.97;;;12.67;;
4422;SDS011;2224;49.814;8.650;2023-06-22T06:20:31;13.87;;;12.67;;
4422;SDS011;2224;49.814;8.650;2023-06-22T06:22:57;13.63;;;12.33;;
4422;SDS011;2224;49.814;8.650;2023-06-22T06:25:22;14.83;;;13.33;;
4422;SDS011;2224;49.814;8.650;2023-06-22T06:27:48;12.90;;;11.73;;
4422;SDS011;2224;49.814;8.650;2023-06-22T06:30:15;14.27;;;13.07;;
4422;SDS011;2224;49.814;8.650;2023-06-22T06:32:42;14.00;;;12.60;;
4422;SDS011;2224;49.814;8.650;2023-06-22T06:35:10;13.40;;;12.10;;
4422;SDS011;2224;49.814;8.650;2023-06-22T06:37:37;13.87;;;12.60;;
4422;SDS011;2224;49.814;8.650;2023-06-22T06:40:06;14.00;;;12.70;;
4422;SDS011;2224;49.814;8.650;2023-06-22T06:42:38;14.57;;;13.17;;
4422;SDS011;2224;49.814;8.650;2023-06-22T06:45:06;13.43;;;12.03;;
4422;SDS011;2224;49.814;8.650;2023-06-22T06:47:33;13.67;;;12.47;;
4422;SDS011;2224;49.814;8.650;2023-06-22T06:49:58;13.13;;;11.83;;
4422;SDS011;2224;49.814;8.650;2023-06-22T06:52:23;13.60;;;12.27;;
4422;SDS011;2224;49.814;8.650;2023-06-22T06:54:48;14.43;;;13.07;;
4422;SDS011;2224;49.814;8.650;2023-06-22T06:57:16;13.07;;;11.97;;
4422;SDS011;2224;49.814;8.650;2023-06-22T06:59:41;14.50;;;13.00;;
4422;SDS011;2224;49.814;8.650;2023-06-22T07:02:07;13.97;;;12.77;;
4422;SDS011;2224;49.814;8.650;2023-06-22T07:04:32;14.87;;;13.00;;
4422;SDS011;2224;49.814;8.650;2023-06-22T07:06:58;14.27;;;12.97;;
4422;SDS011;2224;49.814;8.650;2023-06-22T07:09:25;13.83;;;12.63;;
4422;SDS011;2224;49.814;8.650;2023-06-22T07:11:51;13.80;;;12.50;;
4422;SDS011;2224;49.814;8.650;2023-06-22T07:14:16;13.27;;;12.10;;
4422;SDS011;2224;49.814;8.650;2023-06-22T07:16:42;13.50;;;12.23;;
4422;SDS011;2224;49.814;8.650;2023-06-22T07:19:07;12.40;;;11.30;;
4422;SDS011;2224;49.814;8.650;2023-06-22T07:21:32;13.70;;;12.50;;
4422;SDS011;2224;49.814;8.650;2023-06-22T07:23:57;14.53;;;12.77;;
4422;SDS011;2224;49.814;8.650;2023-06-22T07:26:23;13.70;;;12.50;;
4422;SDS011;2224;49.814;8.650;2023-06-22T07:28:48;14.40;;;12.97;;
4422;SDS011;2224;49.814;8.650;2023-06-22T07:31:15;14.43;;;12.90;;
4422;SDS011;2224;49.814;8.650;2023-06-22T07:33:41;14.10;;;12.97;;
4422;SDS011;2224;49.814;8.650;2023-06-22T07:36:06;14.73;;;13.30;;
4422;SDS011;2224;49.814;8.650;2023-06-22T07:38:33;14.37;;;13.07;;
4422;SDS011;2224;49.814;8.650;2023-06-22T07:40:59;13.50;;;12.40;;
4422;SDS011;2224;49.814;8.650;2023-06-22T07:43:24;13.90;;;12.60;;
4422;SDS011;2224;49.814;8.650;2023-06-22T07:45:49;14.30;;;13.00;;
4422;SDS011;2224;49.814;8.650;2023-06-22T07:48:21;15.03;;;13.63;;
4422;SDS011;2224;49.814;8.650;2023-06-22T07:50:47;13.50;;;12.17;;
4422;SDS011;2224;49.814;8.650;2023-06-22T07:53:13;14.50;;;13.20;;
4422;SDS011;2224;49.814;8.650;2023-06-22T07:55:38;13.70;;;12.50;;
4422;SDS011;2224;49.814;8.650;2023-06-22T07:58:03;13.97;;;12.67;;
4422;SDS011;2224;49.814;8.650;2023-06-22T08:00:28;14.70;;;13.30;;
4422;SDS011;2224;49.814;8.650;2023-06-22T08:02:54;14.50;;;13.10;;
4422;SDS011;2224;49.814;8.650;2023-06-22T08:05:19;14.23;;;12.93;;
4422;SDS011;2224;49.814;8.650;2023-06-22T08:07:45;14.67;;;13.10;;
4422;SDS011;2224;49.814;8.650;2023-06-22T08:10:10;14.83;;;13.47;;
4422;SDS011;2224;49.814;8.650;2023-06-22T08:12:36;13.87;;;12.67;;
4422;SDS011;2224;49.814;8.650;2023-06-22T08:15:02;12.43;;;11.23;;
4422;SDS011;2224;49.814;8.650;2023-06-22T08:17:28;14.23;;;12.93;;
4422;SDS011;2224;49.814;8.650;2023-06-22T08:19:53;13.17;;;12.07;;
4422;SDS011;2224;49.814;8.650;2023-06-22T08:22:18;14.43;;;13.03;;
4422;SDS011;2224;49.814;8.650;2023-06-22T08:24:44;14.37;;;13.00;;
4422;SDS011;2224;49.814;8.650;2023-06-22T08:27:09;13.33;;;12.13;;
4422;SDS011;2224;49.814;8.650;2023-06-22T08:29:36;14.23;;;13.00;;
4422;SDS011;2224;49.814;8.650;2023-06-22T08:32:02;14.67;;;13.37;;
4422;SDS011;2224;49.814;8.650;2023-06-22T08:34:27;13.67;;;12.47;;
4422;SDS011;2224;49.814;8.650;2023-06-22T08:36:53;14.53;;;13.23;;
4422;SDS011;2224;49.814;8.650;2023-06-22T08:39:19;14.10;;;12.60;;
4422;SDS011;2224;49.814;8.650;2023-06-22T08:41:45;15.00;;;12.47;;
4422;SDS011;2224;49.814;8.650;2023-06-22T08:44:11;13.17;;;11.87;;
4422;SDS011;2224;49.814;8.650;2023-06-22T08:46:36;13.50;;;12.30;;
4422;SDS011;2224;49.814;8.650;2023-06-22T08:49:03;12.90;;;11.80;;
4422;SDS011;2224;49.814;8.650;2023-06-22T08:51:29;12.13;;;11.03;;
4422;SDS011;2224;49.814;8.650;2023-06-22T08:53:54;12.87;;;11.73;;
4422;SDS011;2224;49.814;8.650;2023-06-22T08:56:19;11.47;;;10.37;;
4422;SDS011;2224;49.814;8.650;2023-06-22T08:58:45;34.27;;;30.77;;
4422;SDS011;2224;49.814;8.650;2023-06-22T09:01:10;23.43;;;19.13;;
4422;SDS011;2224;49.814;8.650;2023-06-22T09:03:35;41.50;;;36.83;;
4422;SDS011;2224;49.814;8.650;2023-06-22T09:06:02;36.63;;;32.93;;
4422;SDS011;2224;49.814;8.650;2023-06-22T09:08:28;20.43;;;18.57;;
4422;SDS011;2224;49.814;8.650;2023-06-22T09:10:53;31.67;;;28.37;;
4422;SDS011;2224;49.814;8.650;2023-06-22T09:13:18;33.43;;;29.30;;
4422;SDS011;2224;49.814;8.650;2023-06-22T09:15:44;27.13;;;24.30;;
4422;SDS011;2224;49.814;8.650;2023-06-22T09:18:13;22.90;;;20.50;;
4422;SDS011;2224;49.814;8.650;2023-06-22T09:20:38;22.20;;;20.00;;
4422;SDS011;2224;49.814;8.650;2023-06-22T09:23:04;12.97;;;11.77;;
4422;SDS011;2224;49.814;8.650;2023-06-22T09:25:29;14.20;;;12.90;;
4422;SDS011;2224;49.814;8.650;2023-06-22T09:27:54;15.13;;;13.73;;
4422;SDS011;2224;49.814;8.650;2023-06-22T09:30:20;15.87;;;14.27;;
4422;SDS011;2224;49.814;8.650;2023-06-22T09:32:45;19.27;;;17.20;;
4422;SDS011;2224;49.814;8.650;2023-06-22T09:35:11;21.80;;;18.40;;
4422;SDS011;2224;49.814;8.650;2023-06-22T09:37:38;17.97;;;16.27;;
4422;SDS011;2224;49.814;8.650;2023-06-22T09:40:04;17.80;;;16.10;;
4422;SDS011;2224;49.814;8.650;2023-06-22T09:42:35;15.23;;;13.83;;
4422;SDS011;2224;49.814;8.650;2023-06-22T09:45:00;15.87;;;14.37;;
4422;SDS011;2224;49.814;8.650;2023-06-22T09:47:26;19.43;;;16.50;;
4422;SDS011;2224;49.814;8.650;2023-06-22T09:49:52;13.30;;;12.20;;
4422;SDS011;2224;49.814;8.650;2023-06-22T09:52:17;13.30;;;12.00;;
4422;SDS011;2224;49.814;8.650;2023-06-22T09:54:42;16.07;;;11.50;;
4422;SDS011;2224;49.814;8.650;2023-06-22T09:57:08;14.30;;;13.10;;
4422;SDS011;2224;49.814;8.650;2023-06-22T09:59:33;18.23;;;15.13;;
4422;SDS011;2224;49.814;8.650;2023-06-22T10:01:58;17.17;;;14.73;;
4422;SDS011;2224;49.814;8.650;2023-06-22T10:04:24;15.07;;;13.07;;
4422;SDS011;2224;49.814;8.650;2023-06-22T10:06:50;12.87;;;11.77;;
4422;SDS011;2224;49.814;8.650;2023-06-22T10:09:15;15.07;;;13.67;;
4422;SDS011;2224;49.814;8.650;2023-06-22T10:11:41;14.80;;;13.30;;
4422;SDS011;2224;49.814;8.650;2023-06-22T10:14:06;16.00;;;13.53;;
4422;SDS011;2224;49.814;8.650;2023-06-22T10:16:31;13.03;;;11.90;;
4422;SDS011;2224;49.814;8.650;2023-06-22T10:18:57;12.20;;;11.10;;
4422;SDS011;2224;49.814;8.650;2023-06-22T10:21:22;15.30;;;13.70;;
4422;SDS011;2224;49.814;8.650;2023-06-22T10:23:48;16.80;;;14.70;;
4422;SDS011;2224;49.814;8.650;2023-06-22T10:26:13;15.77;;;12.50;;
4422;SDS011;2224;49.814;8.650;2023-06-22T10:28:38;13.13;;;11.13;;
4422;SDS011;2224;49.814;8.650;2023-06-22T10:31:04;11.80;;;10.63;;
4422;SDS011;2224;49.814;8.650;2023-06-22T10:33:29;12.40;;;11.30;;
4422;SDS011;2224;49.814;8.650;2023-06-22T10:35:54;13.43;;;11.50;;
4422;SDS011;2224;49.814;8.650;2023-06-22T10:38:20;13.20;;;11.40;;
4422;SDS011;2224;49.814;8.650;2023-06-22T10:40:45;12.40;;;9.97;;
4422;SDS011;2224;49.814;8.650;2023-06-22T10:43:11;11.83;;;10.70;;
4422;SDS011;2224;49.814;8.650;2023-06-22T10:45:36;14.93;;;12.30;;
4422;SDS011;2224;49.814;8.650;2023-06-22T10:48:01;13.93;;;12.53;;
4422;SDS011;2224;49.814;8.650;2023-06-22T10:50:27;11.83;;;10.73;;
4422;SDS011;2224;49.814;8.650;2023-06-22T10:52:53;12.97;;;11.07;;
4422;SDS011;2224;49.814;8.650;2023-06-22T10:55:19;11.93;;;10.93;;
4422;SDS011;2224;49.814;8.650;2023-06-22T10:57:44;11.97;;;10.77;;
4422;SDS011;2224;49.814;8.650;2023-06-22T11:00:12;11.03;;;10.03;;
4422;SDS011;2224;49.814;8.650;2023-06-22T11:02:38;11.80;;;10.80;;
4422;SDS011;2224;49.814;8.650;2023-06-22T11:05:03;11.60;;;10.50;;
4422;SDS011;2224;49.814;8.650;2023-06-22T11:07:29;15.60;;;10.80;;
4422;SDS011;2224;49.814;8.650;2023-06-22T11:09:54;12.20;;;11.20;;
4422;SDS011;2224;49.814;8.650;2023-06-22T11:12:20;11.63;;;10.60;;
4422;SDS011;2224;49.814;8.650;2023-06-22T11:14:45;12.30;;;11.07;;
4422;SDS011;2224;49.814;8.650;2023-06-22T11:17:11;12.07;;;10.97;;
4422;SDS011;2224;49.814;8.650;2023-06-22T11:19:36;12.77;;;10.70;;
4422;SDS011;2224;49.814;8.650;2023-06-22T11:22:02;12.07;;;10.87;;
4422;SDS011;2224;49.814;8.650;2023-06-22T11:24:27;12.33;;;11.10;;
4422;SDS011;2224;49.814;8.650;2023-06-22T11:26:52;12.73;;;11.40;;
4422;SDS011;2224;49.814;8.650;2023-06-22T11:29:18;16.63;;;11.50;;
4422;SDS011;2224;49.814;8.650;2023-06-22T11:31:43;13.17;;;11.90;;
4422;SDS011;2224;49.814;8.650;2023-06-22T11:34:08;10.70;;;9.70;;
4422;SDS011;2224;49.814;8.650;2023-06-22T11:36:34;11.80;;;10.80;;
4422;SDS011;2224;49.814;8.650;2023-06-22T11:39:00;11.90;;;10.80;;
4422;SDS011;2224;49.814;8.650;2023-06-22T11:41:26;11.10;;;10.20;;
4422;SDS011;2224;49.814;8.650;2023-06-22T11:43:51;10.50;;;9.70;;
4422;SDS011;2224;49.814;8.650;2023-06-22T11:46:17;13.37;;;10.10;;
4422;SDS011;2224;49.814;8.650;2023-06-22T11:48:42;11.70;;;9.90;;
4422;SDS011;2224;49.814;8.650;2023-06-22T11:51:07;14.03;;;10.57;;
4422;SDS011;2224;49.814;8.650;2023-06-22T11:53:33;11.13;;;9.47;;
4422;SDS011;2224;49.814;8.650;2023-06-22T11:55:59;11.10;;;10.00;;
4422;SDS011;2224;49.814;8.650;2023-06-22T11:58:26;10.43;;;9.53;;
4422;SDS011;2224;49.814;8.650;2023-06-22T12:00:51;10.67;;;9.70;;
4422;SDS011;2224;49.814;8.650;2023-06-22T12:03:17;11.23;;;10.17;;
4422;SDS011;2224;49.814;8.650;2023-06-22T12:05:42;10.67;;;9.47;;
4422;SDS011;2224;49.814;8.650;2023-06-22T12:08:08;12.03;;;10.27;;
4422;SDS011;2224;49.814;8.650;2023-06-22T12:10:34;11.40;;;10.40;;
4422;SDS011;2224;49.814;8.650;2023-06-22T12:12:59;11.93;;;10.77;;
4422;SDS011;2224;49.814;8.650;2023-06-22T12:15:25;10.97;;;9.97;;
4422;SDS011;2224;49.814;8.650;2023-06-22T12:17:50;10.60;;;9.60;;
4422;SDS011;2224;49.814;8.650;2023-06-22T12:20:16;11.63;;;10.47;;
4422;SDS011;2224;49.814;8.650;2023-06-22T12:22:41;11.13;;;9.93;;
4422;SDS011;2224;49.814;8.650;2023-06-22T12:25:09;11.67;;;10.50;;
4422;SDS011;2224;49.814;8.650;2023-06-22T12:27:35;10.90;;;10.00;;
4422;SDS011;2224;49.814;8.650;2023-06-22T12:30:01;10.10;;;9.20;;
4422;SDS011;2224;49.814;8.650;2023-06-22T12:32:27;11.67;;;10.07;;
4422;SDS011;2224;49.814;8.650;2023-06-22T12:34:52;13.87;;;9.87;;
4422;SDS011;2224;49.814;8.650;2023-06-22T12:37:17;10.40;;;8.80;;
4422;SDS011;2224;49.814;8.650;2023-06-22T12:39:43;10.07;;;9.07;;
4422;SDS011;2224;49.814;8.650;2023-06-22T12:42:08;11.43;;;9.13;;
4422;SDS011;2224;49.814;8.650;2023-06-22T12:44:37;10.57;;;9.57;;
4422;SDS011;2224;49.814;8.650;2023-06-22T12:47:05;10.03;;;9.03;;
4422;SDS011;2224;49.814;8.650;2023-06-22T12:49:31;10.53;;;9.23;;
4422;SDS011;2224;49.814;8.650;2023-06-22T12:51:56;10.53;;;9.53;;
4422;SDS011;2224;49.814;8.650;2023-06-22T12:54:22;10.30;;;9.37;;
4422;SDS011;2224;49.814;8.650;2023-06-22T12:56:47;10.60;;;9.10;;
4422;SDS011;2224;49.814;8.650;2023-06-22T12:59:13;10.73;;;9.73;;
4422;SDS011;2224;49.814;8.650;2023-06-22T13:01:38;11.40;;;10.13;;
4422;SDS011;2224;49.814;8.650;2023-06-22T13:04:04;10.77;;;9.80;;
4422;SDS011;2224;49.814;8.650;2023-06-22T13:06:30;10.27;;;9.27;;
4422;SDS011;2224;49.814;8.650;2023-06-22T13:08:55;11.73;;;9.97;;
4422;SDS011;2224;49.814;8.650;2023-06-22T13:11:20;9.63;;;8.10;;
4422;SDS011;2224;49.814;8.650;2023-06-22T13:13:46;9.60;;;7.97;;
4422;SDS011;2224;49.814;8.650;2023-06-22T13:16:11;7.93;;;7.13;;
4422;SDS011;2224;49.814;8.650;2023-06-22T13:18:37;9.63;;;7.37;;
4422;SDS011;2224;49.814;8.650;2023-06-22T13:21:03;9.60;;;6.73;;
4422;SDS011;2224;49.814;8.650;2023-06-22T13:23:28;8.67;;;6.37;;
4422;SDS011;2224;49.814;8.650;2023-06-22T13:25:54;11.10;;;6.30;;
4422;SDS011;2224;49.814;8.650;2023-06-22T13:28:19;8.53;;;6.27;;
4422;SDS011;2224;49.814;8.650;2023-06-22T13:30:46;7.83;;;7.03;;
4422;SDS011;2224;49.814;8.650;2023-06-22T13:33:12;9.20;;;7.10;;
4422;SDS011;2224;49.814;8.650;2023-06-22T13:35:40;13.37;;;7.27;;
4422;SDS011;2224;49.814;8.650;2023-06-22T13:38:10;12.27;;;6.77;;
4422;SDS011;2224;49.814;8.650;2023-06-22T13:40:36;9.50;;;6.93;;
4422;SDS011;2224;49.814;8.650;2023-06-22T13:43:05;10.73;;;6.53;;
4422;SDS011;2224;49.814;8.650;2023-06-22T13:45:31;8.13;;;6.23;;
4422;SDS011;2224;49.814;8.650;2023-06-22T13:47:56;8.87;;;6.07;;
4422;SDS011;2224;49.814;8.650;2023-06-22T13:50:21;10.53;;;6.67;;
4422;SDS011;2224;49.814;8.650;2023-06-22T13:52:47;9.43;;;6.83;;
4422;SDS011;2224;49.814;8.650;2023-06-22T13:55:12;9.13;;;5.67;;
4422;SDS011;2224;49.814;8.650;2023-06-22T13:57:39;8.00;;;5.63;;
4422;SDS011;2224;49.814;8.650;2023-06-22T14:00:05;8.63;;;6.37;;
4422;SDS011;2224;49.814;8.650;2023-06-22T14:02:31;7.83;;;5.40;;
4422;SDS011;2224;49.814;8.650;2023-06-22T14:04:56;7.60;;;6.10;;
4422;SDS011;2224;49.814;8.650;2023-06-22T14:07:21;10.00;;;6.30;;
4422;SDS011;2224;49.814;8.650;2023-06-22T14:09:47;8.80;;;6.37;;
4422;SDS011;2224;49.814;8.650;2023-06-22T14:12:12;7.90;;;5.80;;
4422;SDS011;2224;49.814;8.650;2023-06-22T14:14:38;7.90;;;5.70;;
4422;SDS011;2224;49.814;8.650;2023-06-22T14:17:03;9.97;;;5.80;;
4422;SDS011;2224;49.814;8.650;2023-06-22T14:19:29;7.67;;;6.27;;
4422;SDS011;2224;49.814;8.650;2023-06-22T14:21:55;11.37;;;6.27;;
4422;SDS011;2224;49.814;8.650;2023-06-22T14:24:21;9.23;;;6.13;;
4422;SDS011;2224;49.814;8.650;2023-06-22T14:26:47;10.00;;;6.17;;
4422;SDS011;2224;49.814;8.650;2023-06-22T14:29:12;13.33;;;6.27;;
4422;SDS011;2224;49.814;8.650;2023-06-22T14:31:37;8.00;;;5.53;;
4422;SDS011;2224;49.814;8.650;2023-06-22T14:34:03;8.50;;;5.40;;
4422;SDS011;2224;49.814;8.650;2023-06-22T14:36:30;7.77;;;5.40;;
4422;SDS011;2224;49.814;8.650;2023-06-22T14:38:55;7.00;;;5.10;;
4422;SDS011;2224;49.814;8.650;2023-06-22T14:41:21;8.73;;;5.50;;
4422;SDS011;2224;49.814;8.650;2023-06-22T14:43:46;10.23;;;6.10;;
4422;SDS011;2224;49.814;8.650;2023-06-22T14:46:13;16.93;;;5.90;;
4422;SDS011;2224;49.814;8.650;2023-06-22T14:48:39;9.10;;;5.83;;